Time;durP1;ratioP1;P1;durP2;ratioP2;P2;SDS_P1;SDS_P2;PMS_P1;PMS_P2;Temp;Humidity;BMP_temperature;BMP_pressure;BME280_temperature;BME280_humidity;BME280_pressure;Samples;Min_cycle;Max_cycle;Signal;HPM_P1;HPM_P2
2022/05/03 00:01:03;;;;;;;10.40;6.10;;;;;;;;;;5070678;28;20444;-71
2022/05/03 00:03:36;;;;;;;5.70;5.00;;;;;;;;;;5065295;28;20450;-72
2022/05/03 00:06:08;;;;;;;7.17;5.23;;;;;;;;;;5065137;28;20436;-72
2022/05/03 00:08:39;;;;;;;6.07;5.43;;;;;;;;;;5082885;28;21082;-73
2022/05/03 00:11:10;;;;;;;5.63;4.83;;;;;;;;;;5081057;28;20440;-71
2022/05/03 00:13:38;;;;;;;6.67;4.30;;;;;;;;;;5066598;28;20547;-73
2022/05/03 00:16:06;;;;;;;7.53;5.17;;;;;;;;;;5092572;28;20483;-73
2022/05/03 00:18:35;;;;;;;7.07;4.70;;;;;;;;;;5079697;28;20483;-73
2022/05/03 00:21:03;;;;;;;7.83;7.07;;;;;;;;;;5078556;28;20480;-73
2022/05/03 00:23:30;;;;;;;6.47;5.20;;;;;;;;;;5070433;28;20881;-73
2022/05/03 00:25:57;;;;;;;7.43;6.00;;;;;;;;;;5080961;28;20802;-73
2022/05/03 00:28:25;;;;;;;6.93;5.00;;;;;;;;;;5071206;28;20535;-74
2022/05/03 00:30:52;;;;;;;8.37;6.00;;;;;;;;;;5084647;28;20548;-72
2022/05/03 00:33:20;;;;;;;6.60;4.93;;;;;;;;;;5082322;28;20513;-74
2022/05/03 00:35:49;;;;;;;7.00;5.60;;;;;;;;;;5079485;28;20448;-73
2022/05/03 00:38:16;;;;;;;6.57;5.10;;;;;;;;;;5084370;28;20445;-73
2022/05/03 00:40:45;;;;;;;7.73;6.10;;;;;;;;;;5083290;28;21013;-73
2022/05/03 00:43:13;;;;;;;6.10;5.50;;;;;;;;;;5067042;28;20438;-74
2022/05/03 00:45:44;;;;;;;8.03;5.30;;;;;;;;;;5069338;28;20536;-74
2022/05/03 00:48:18;;;;;;;5.87;5.23;;;;;;;;;;5065071;28;20519;-74
2022/05/03 00:50:49;;;;;;;7.10;5.70;;;;;;;;;;5080506;28;20992;-73
2022/05/03 00:53:18;;;;;;;6.70;5.73;;;;;;;;;;5087861;28;20462;-73
2022/05/03 00:56:00;;;;;;;6.17;5.27;;;;;;;;;;5071575;28;20461;-73
2022/05/03 00:58:34;;;;;;;6.07;5.47;;;;;;;;;;5072325;28;20508;-72
2022/05/03 01:01:05;;;;;;;7.57;5.97;;;;;;;;;;5086292;28;20994;-72
2022/05/03 01:03:40;;;;;;;6.77;5.60;;;;;;;;;;5073316;28;20860;-73
2022/05/03 01:06:14;;;;;;;6.57;5.70;;;;;;;;;;5069619;28;20451;-72
2022/05/03 01:08:48;;;;;;;6.77;4.87;;;;;;;;;;5070408;28;20864;-72
2022/05/03 01:11:21;;;;;;;6.10;5.50;;;;;;;;;;5061523;28;20523;-74
2022/05/03 01:13:53;;;;;;;7.63;6.10;;;;;;;;;;5089993;28;20475;-72
2022/05/03 01:16:27;;;;;;;5.10;4.60;;;;;;;;;;5078059;28;20567;-72
2022/05/03 01:18:55;;;;;;;6.10;5.10;;;;;;;;;;5083048;28;20837;-71
2022/05/03 01:21:32;;;;;;;6.20;5.60;;;;;;;;;;5085014;28;20475;-72
2022/05/03 01:24:11;;;;;;;8.53;5.67;;;;;;;;;;5070517;28;20546;-71
2022/05/03 01:26:56;;;;;;;6.77;4.97;;;;;;;;;;5080990;28;20459;-74
2022/05/03 01:29:31;;;;;;;6.50;5.57;;;;;;;;;;5074784;28;20484;-73
2022/05/03 01:31:59;;;;;;;8.20;6.30;;;;;;;;;;5069348;28;20443;-72
2022/05/03 01:34:28;;;;;;;5.50;4.90;;;;;;;;;;5074721;28;20477;-72
2022/05/03 01:37:06;;;;;;;6.17;5.33;;;;;;;;;;5089398;28;20454;-71
2022/05/03 01:39:39;;;;;;;7.33;6.17;;;;;;;;;;5070059;28;20455;-73
2022/05/03 01:42:11;;;;;;;6.83;5.07;;;;;;;;;;5086473;28;20993;-73
2022/05/03 01:44:41;;;;;;;5.50;4.87;;;;;;;;;;5084642;28;20455;-73
2022/05/03 01:47:12;;;;;;;6.77;5.00;;;;;;;;;;5083426;28;20814;-72
2022/05/03 01:52:37;;;;;;;6.50;5.23;;;;;;;;;;5078647;28;20492;-75
2022/05/03 01:55:10;;;;;;;6.20;5.60;;;;;;;;;;5075402;28;20468;-72
2022/05/03 01:57:42;;;;;;;8.60;6.23;;;;;;;;;;5081489;28;20448;-74
2022/05/03 02:00:12;;;;;;;6.37;5.27;;;;;;;;;;5085587;28;20461;-72
2022/05/03 02:02:45;;;;;;;6.27;5.67;;;;;;;;;;5058296;28;20985;-72
2022/05/03 02:05:21;;;;;;;7.30;6.10;;;;;;;;;;5076757;28;20979;-72
2022/05/03 02:07:53;;;;;;;5.47;4.87;;;;;;;;;;5079910;28;20448;-73
2022/05/03 02:10:26;;;;;;;6.03;5.33;;;;;;;;;;5078438;28;20985;-73
2022/05/03 02:12:54;;;;;;;5.70;4.73;;;;;;;;;;5085746;28;20441;-72
2022/05/03 02:15:36;;;;;;;7.53;6.30;;;;;;;;;;5075899;28;20464;-73
2022/05/03 02:18:06;;;;;;;6.80;5.60;;;;;;;;;;5066949;28;20960;-73
2022/05/03 02:20:40;;;;;;;5.93;5.27;;;;;;;;;;5072003;28;20453;-72
2022/05/03 02:23:25;;;;;;;8.40;6.30;;;;;;;;;;5084644;28;20467;-73
2022/05/03 02:26:12;;;;;;;6.83;6.10;;;;;;;;;;5089005;28;20528;-72
2022/05/03 02:28:41;;;;;;;6.97;6.30;;;;;;;;;;5085915;28;20453;-73
2022/05/03 02:31:11;;;;;;;5.77;4.57;;;;;;;;;;5083169;28;20477;-73
2022/05/03 02:33:40;;;;;;;7.83;6.20;;;;;;;;;;5091686;28;20438;-74
2022/05/03 02:36:10;;;;;;;6.10;5.40;;;;;;;;;;5090115;28;20444;-72
2022/05/03 02:38:38;;;;;;;9.47;6.00;;;;;;;;;;5083258;28;20489;-73
2022/05/03 02:41:06;;;;;;;7.47;5.97;;;;;;;;;;5090941;28;20436;-72
2022/05/03 02:43:36;;;;;;;8.57;6.50;;;;;;;;;;5091047;28;20440;-74
2022/05/03 02:46:08;;;;;;;7.47;6.60;;;;;;;;;;5089850;28;20511;-72
2022/05/03 02:48:42;;;;;;;9.20;5.73;;;;;;;;;;5091140;28;20447;-73
2022/05/03 02:51:09;;;;;;;7.00;6.30;;;;;;;;;;5082717;28;20956;-72
2022/05/03 02:53:44;;;;;;;6.87;5.60;;;;;;;;;;5090089;28;20454;-72
2022/05/03 02:56:18;;;;;;;6.23;5.00;;;;;;;;;;5075573;28;20442;-73
2022/05/03 02:58:52;;;;;;;9.70;5.70;;;;;;;;;;5085571;28;20970;-73
2022/05/03 03:04:17;;;;;;;7.47;5.50;;;;;;;;;;5089884;28;20462;-73
2022/05/03 03:06:44;;;;;;;10.30;6.70;;;;;;;;;;5090646;28;20437;-72
2022/05/03 03:09:16;;;;;;;10.33;7.00;;;;;;;;;;5089866;28;20847;-72
2022/05/03 03:11:53;;;;;;;6.47;5.80;;;;;;;;;;5090508;28;20436;-72
2022/05/03 03:14:23;;;;;;;8.00;6.00;;;;;;;;;;5088944;28;20441;-73
2022/05/03 03:16:56;;;;;;;7.60;6.07;;;;;;;;;;5090006;28;20448;-72
2022/05/03 03:19:46;;;;;;;6.50;5.67;;;;;;;;;;5090875;28;20790;-72
2022/05/03 03:22:14;;;;;;;9.90;6.10;;;;;;;;;;5089766;28;20460;-72
2022/05/03 03:24:42;;;;;;;7.17;6.47;;;;;;;;;;5082347;28;20587;-73
2022/05/03 03:27:10;;;;;;;7.47;5.60;;;;;;;;;;5076513;28;20482;-73
2022/05/03 03:29:39;;;;;;;7.93;5.50;;;;;;;;;;5077347;28;20456;-73
2022/05/03 03:32:07;;;;;;;10.93;6.37;;;;;;;;;;5073980;28;20482;-73
2022/05/03 03:34:36;;;;;;;9.03;6.50;;;;;;;;;;5084017;28;20433;-73
2022/05/03 03:37:07;;;;;;;6.90;5.43;;;;;;;;;;5065938;28;20444;-73
2022/05/03 03:39:35;;;;;;;7.80;6.47;;;;;;;;;;5083485;28;20447;-73
2022/05/03 03:42:03;;;;;;;12.17;6.80;;;;;;;;;;5076469;28;20809;-73
2022/05/03 03:44:30;;;;;;;7.87;6.13;;;;;;;;;;5060478;28;20556;-73
2022/05/03 03:46:58;;;;;;;9.67;7.00;;;;;;;;;;5081373;28;20443;-73
2022/05/03 03:49:25;;;;;;;9.70;6.80;;;;;;;;;;5087278;28;20444;-73
2022/05/03 03:51:53;;;;;;;11.63;6.80;;;;;;;;;;5074184;28;20442;-73
2022/05/03 03:54:21;;;;;;;9.37;6.73;;;;;;;;;;5083065;28;20935;-73
2022/05/03 03:56:48;;;;;;;9.30;6.57;;;;;;;;;;5082214;28;20439;-73
2022/05/03 03:59:16;;;;;;;7.43;6.70;;;;;;;;;;5086462;28;20488;-73
2022/05/03 04:01:44;;;;;;;7.13;5.60;;;;;;;;;;5078525;28;20468;-74
2022/05/03 04:04:12;;;;;;;7.50;5.50;;;;;;;;;;5063553;28;20450;-72
2022/05/03 04:06:39;;;;;;;7.73;6.17;;;;;;;;;;5082547;28;20436;-72
2022/05/03 04:09:09;;;;;;;6.20;5.63;;;;;;;;;;5082930;28;20544;-73
2022/05/03 04:11:45;;;;;;;6.30;5.40;;;;;;;;;;5094073;28;20530;-73
2022/05/03 04:14:13;;;;;;;7.23;5.90;;;;;;;;;;5093231;28;20442;-73
2022/05/03 04:16:40;;;;;;;12.10;5.83;;;;;;;;;;5091377;28;20977;-75
2022/05/03 04:19:07;;;;;;;8.93;6.90;;;;;;;;;;5090141;28;20520;-71
2022/05/03 04:21:35;;;;;;;6.30;5.33;;;;;;;;;;5086915;28;20443;-72
2022/05/03 04:24:02;;;;;;;6.70;6.00;;;;;;;;;;5085452;28;20483;-73
2022/05/03 04:26:30;;;;;;;9.57;6.70;;;;;;;;;;5094150;28;20533;-77
2022/05/03 04:28:58;;;;;;;9.00;7.47;;;;;;;;;;5075773;28;20435;-76
2022/05/03 04:31:26;;;;;;;9.60;7.23;;;;;;;;;;5090883;28;20581;-75
2022/05/03 04:33:53;;;;;;;12.03;8.27;;;;;;;;;;5069718;28;20870;-73
2022/05/03 04:36:21;;;;;;;9.13;6.67;;;;;;;;;;5090288;28;20478;-75
2022/05/03 04:38:48;;;;;;;8.43;7.07;;;;;;;;;;5093121;28;20450;-74
2022/05/03 04:41:15;;;;;;;10.50;8.20;;;;;;;;;;5092987;28;20922;-74
2022/05/03 04:43:44;;;;;;;10.17;6.33;;;;;;;;;;5092309;28;20552;-76
2022/05/03 04:46:11;;;;;;;10.60;7.67;;;;;;;;;;5084374;28;20490;-73
2022/05/03 04:48:38;;;;;;;7.87;6.63;;;;;;;;;;5087588;28;20437;-71
2022/05/03 04:51:05;;;;;;;10.70;7.37;;;;;;;;;;5085083;28;20439;-73
2022/05/03 04:53:33;;;;;;;10.60;8.90;;;;;;;;;;5079657;28;20544;-73
2022/05/03 04:56:00;;;;;;;10.90;9.30;;;;;;;;;;5089862;28;20441;-73
2022/05/03 04:58:27;;;;;;;10.67;7.77;;;;;;;;;;5076393;28;20479;-73
2022/05/03 05:00:56;;;;;;;10.00;7.73;;;24.70;1.00;;;;;;5076449;28;20445;-73
2022/05/03 05:03:23;;;;;;;12.20;8.10;;;9.70;99.90;;;;;;5089255;28;20440;-74
2022/05/03 05:05:50;;;;;;;10.10;7.00;;;9.60;99.90;;;;;;5093372;28;20491;-72
2022/05/03 05:08:17;;;;;;;14.60;8.47;;;9.70;99.90;;;;;;5081122;28;20487;-73
2022/05/03 05:10:44;;;;;;;12.17;7.83;;;9.70;99.90;;;;;;5092891;28;20716;-73
2022/05/03 05:13:11;;;;;;;10.80;8.53;;;9.60;99.90;;;;;;5092283;28;20476;-73
2022/05/03 05:15:38;;;;;;;8.70;7.23;;;9.70;99.90;;;;;;5092984;28;20505;-74
2022/05/03 05:18:06;;;;;;;10.13;6.93;;;9.70;99.90;;;;;;5092421;28;20444;-73
2022/05/03 05:20:34;;;;;;;11.57;9.40;;;10.00;99.90;;;;;;5092740;28;20433;-73
2022/05/03 05:23:01;;;;;;;14.97;9.37;;;10.00;99.90;;;;;;5092296;28;20455;-73
2022/05/03 05:25:28;;;;;;;10.00;8.50;;;10.00;99.90;;;;;;5092680;28;21075;-73
2022/05/03 05:27:55;;;;;;;9.93;7.50;;;9.90;99.90;;;;;;5091918;28;20547;-73
2022/05/03 05:30:22;;;;;;;8.87;7.37;;;10.00;99.90;;;;;;5085252;28;20452;-73
2022/05/03 05:32:49;;;;;;;15.67;9.50;;;10.10;99.90;;;;;;5092392;28;20919;-73
2022/05/03 05:35:17;;;;;;;11.47;7.70;;;10.20;99.90;;;;;;5076499;28;20477;-74
2022/05/03 05:37:44;;;;;;;12.33;8.20;;;10.20;99.90;;;;;;5092660;28;20536;-73
2022/05/03 05:40:11;;;;;;;9.03;7.83;;;;;;;;;;5091655;28;20451;-72
2022/05/03 05:42:38;;;;;;;13.43;8.70;;;;;;;;;;5092667;28;20443;-73
2022/05/03 05:45:07;;;;;;;11.50;8.60;;;10.20;99.90;;;;;;5091766;28;20534;-72
2022/05/03 05:47:34;;;;;;;13.17;8.47;;;;;;;;;;5092375;28;20522;-72
2022/05/03 05:50:01;;;;;;;11.53;7.90;;;;;;;;;;5091457;28;20446;-72
2022/05/03 05:55:14;;;;;;;10.73;8.67;;;;;;;;;;5091562;28;20761;-73
2022/05/03 05:57:42;;;;;;;10.77;8.37;;;;;;;;;;5092085;28;20452;-72
2022/05/03 06:00:09;;;;;;;9.83;8.80;;;;;;;;;;5078380;28;20904;-73
2022/05/03 06:02:36;;;;;;;12.27;8.07;;;;;;;;;;5090582;28;20445;-73
2022/05/03 06:05:04;;;;;;;8.63;7.73;;;;;;;;;;5091069;28;20936;-73
2022/05/03 06:07:32;;;;;;;11.80;9.27;;;;;;;;;;5089089;28;20457;-73
2022/05/03 06:09:59;;;;;;;11.30;8.70;;;10.60;99.90;;;;;;5091155;28;20470;-73
2022/05/03 06:12:26;;;;;;;9.90;8.90;;;12.60;99.90;;;;;;5092171;28;20524;-73
2022/05/03 06:14:53;;;;;;;10.13;8.00;;;12.80;99.90;;;;;;5091691;28;20440;-72
2022/05/03 06:17:20;;;;;;;10.57;8.20;;;12.90;99.90;;;;;;5091878;28;20911;-73
2022/05/03 06:19:47;;;;;;;13.70;8.57;;;13.10;99.90;;;;;;5091574;28;20439;-73
2022/05/03 06:22:14;;;;;;;12.63;8.07;;;13.20;91.10;;;;;;5091353;28;20443;-73
2022/05/03 06:24:45;;;;;;;8.93;7.57;;;13.30;53.20;;;;;;5091571;28;20444;-73
2022/05/03 06:27:12;;;;;;;10.70;8.07;;;13.50;1.00;;;;;;5091272;28;20496;-73
2022/05/03 06:29:39;;;;;;;11.07;8.63;;;13.60;1.00;;;;;;5078340;28;20442;-73
2022/05/03 06:32:06;;;;;;;11.17;9.30;;;13.70;1.00;;;;;;5090698;28;20949;-74
2022/05/03 06:34:33;;;;;;;9.60;7.93;;;13.70;1.00;;;;;;5091599;28;20449;-73
2022/05/03 06:37:00;;;;;;;12.40;8.73;;;13.80;1.00;;;;;;5091615;28;20447;-73
2022/05/03 06:39:27;;;;;;;11.30;8.50;;;14.00;1.00;;;;;;5091059;28;20989;-73
2022/05/03 06:41:55;;;;;;;12.27;9.10;;;14.10;99.90;;;;;;5091472;28;20440;-73
2022/05/03 06:44:23;;;;;;;13.03;8.83;;;14.50;99.90;;;;;;5091405;28;20525;-74
2022/05/03 06:46:50;;;;;;;11.87;8.73;;;14.50;5.30;;;;;;5091491;28;20951;-74
2022/05/03 06:49:17;;;;;;;12.32;8.73;;;14.70;99.90;;;;;;5090629;28;20443;-73
2022/05/03 06:51:44;;;;;;;11.90;8.57;;;14.80;1.00;;;;;;5091381;28;20195;-73
2022/05/03 06:54:10;;;;;;;10.83;7.50;;;14.80;1.00;;;;;;5090341;28;20458;-73
2022/05/03 06:56:37;;;;;;;12.50;8.00;;;14.70;99.90;;;;;;5091268;28;20456;-73
2022/05/03 06:59:07;;;;;;;9.93;8.37;;;14.80;1.00;;;;;;5082004;28;20582;-72
2022/05/03 07:01:35;;;;;;;12.27;9.33;;;14.90;99.90;;;;;;5080595;28;20444;-72
2022/05/03 07:04:02;;;;;;;11.83;8.30;;;14.90;99.90;;;;;;5090467;28;20447;-72
2022/05/03 07:06:29;;;;;;;10.60;8.13;;;15.10;1.00;;;;;;5091300;28;20582;-74
2022/05/03 07:08:56;;;;;;;8.50;7.67;;;15.20;1.00;;;;;;5087874;28;20535;-73
2022/05/03 07:11:22;;;;;;;9.03;7.37;;;15.20;99.90;;;;;;5090492;28;20961;-73
2022/05/03 07:13:49;;;;;;;9.10;7.87;;;15.30;99.90;;;;;;5091086;28;20444;-73
2022/05/03 07:16:18;;;;;;;10.97;8.00;;;15.20;99.90;;;;;;5089453;28;20497;-73
2022/05/03 07:24:13;;;;;;;13.13;8.37;;;15.40;57.30;;;;;;5090460;28;20439;-72
2022/05/03 07:26:40;;;;;;;10.83;6.70;;;15.60;1.00;;;;;;5090788;28;20495;-72
2022/05/03 07:29:07;;;;;;;12.43;8.47;;;15.70;99.90;;;;;;5081719;28;20863;-72
2022/05/03 07:31:35;;;;;;;10.87;8.10;;;15.80;29.30;;;;;;5086452;28;20436;-72
2022/05/03 07:34:02;;;;;;;8.43;7.10;;;15.90;1.00;;;;;;5090445;28;20547;-72
2022/05/03 07:36:30;;;;;;;10.97;8.00;;;16.00;99.90;;;;;;5090745;28;20821;-73
2022/05/03 07:38:57;;;;;;;9.50;7.00;;;16.20;99.90;;;;;;5090058;28;20441;-72
2022/05/03 07:41:25;;;;;;;9.83;7.23;;;16.40;99.90;;;;;;5090370;28;20433;-72
2022/05/03 07:43:52;;;;;;;7.80;6.10;;;16.50;1.00;;;;;;5090886;28;20444;-74
2022/05/03 07:46:19;;;;;;;11.90;6.43;;;16.50;1.00;;;;;;5089939;28;20565;-73
2022/05/03 07:48:47;;;;;;;9.07;6.27;;;16.50;96.20;;;;;;5090897;28;20439;-73
2022/05/03 07:51:16;;;;;;;8.17;6.63;;;16.30;30.70;;;;;;5089435;28;20989;-74
2022/05/03 07:53:43;;;;;;;7.90;6.33;;;16.40;10.40;;;;;;5090954;28;20922;-73
2022/05/03 07:56:10;;;;;;;9.00;7.27;;;16.40;1.00;;;;;;5089700;28;20536;-73
2022/05/03 07:58:37;;;;;;;9.30;5.93;;;16.40;1.00;;;;;;5086200;28;20465;-74
2022/05/03 08:01:05;;;;;;;5.90;5.23;;;16.40;1.00;;;;;;5075149;28;20532;-74
2022/05/03 08:03:33;;;;;;;6.37;5.77;;;16.50;1.00;;;;;;5090337;28;20547;-73
2022/05/03 08:06:02;;;;;;;6.80;5.50;;;16.60;1.00;;;;;;5089716;28;20978;-72
2022/05/03 08:08:29;;;;;;;6.80;5.30;;;16.60;1.00;;;;;;5087910;28;20441;-73
2022/05/03 08:10:56;;;;;;;7.07;6.00;;;16.70;1.00;;;;;;5063323;28;20535;-72
2022/05/03 08:13:23;;;;;;;6.20;4.90;;;16.90;1.00;;;;;;5090154;28;20539;-73
2022/05/03 08:15:50;;;;;;;5.70;5.20;;;16.90;1.00;;;;;;5090305;28;21175;-73
2022/05/03 08:18:17;;;;;;;5.90;5.30;;;17.10;1.00;;;;;;5089555;28;20994;-73
2022/05/03 08:20:44;;;;;;;7.13;5.50;;;17.00;1.00;;;;;;5090178;28;20464;-74
2022/05/03 08:23:12;;;;;;;5.40;4.90;;;16.90;1.00;;;;;;5089624;28;20861;-73
2022/05/03 08:25:39;;;;;;;4.23;3.87;;;17.00;1.00;;;;;;5090449;28;20436;-73
2022/05/03 08:28:06;;;;;;;6.27;4.17;;;;;;;;;;5091342;28;20448;-74
2022/05/03 08:30:34;;;;;;;6.43;4.50;;;;;;;;;;5080923;28;20524;-74
2022/05/03 08:33:02;;;;;;;8.67;3.93;;;;;;;;;;5093322;28;20491;-73
2022/05/03 08:35:29;;;;;;;4.00;3.17;;;;;;;;;;5094253;28;20437;-73
2022/05/03 08:43:28;;;;;;;3.87;3.23;;;;;;;;;;5068205;28;20424;-73
2022/05/03 08:45:56;;;;;;;4.43;3.30;;;;;;;;;;5093261;28;20905;-73
2022/05/03 08:48:27;;;;;;;2.90;2.43;;;;;;;;;;5093525;28;20447;-74
2022/05/03 08:50:54;;;;;;;3.40;3.00;;;;;;;;;;5092904;28;20478;-74
2022/05/03 08:53:22;;;;;;;2.60;2.40;;;;;;;;;;5093309;28;20538;-73
2022/05/03 08:55:51;;;;;;;3.00;2.30;;;;;;;;;;5093378;28;20445;-73
2022/05/03 08:58:19;;;;;;;3.20;2.90;;;;;;;;;;5090597;28;20973;-73
2022/05/03 09:00:46;;;;;;;3.97;3.60;;;;;;;;;;5075675;28;20464;-73
2022/05/03 09:03:15;;;;;;;2.77;2.57;;;;;;;;;;5092544;28;20952;-72
2022/05/03 09:05:42;;;;;;;3.73;2.77;;;;;;;;;;5093498;28;20444;-74
2022/05/03 09:08:11;;;;;;;3.10;2.53;;;;;;;;;;5089454;28;20990;-73
2022/05/03 09:10:39;;;;;;;5.20;3.13;;;;;;;;;;5092859;28;20472;-74
2022/05/03 09:13:18;;;;;;;3.53;3.23;;;;;;;;;;5092384;28;21057;-73
2022/05/03 09:15:46;;;;;;;4.03;3.23;;;;;;;;;;5092869;28;20542;-74
2022/05/03 09:18:21;;;;;;;3.10;2.80;;;;;;;;;;5092638;28;20532;-74
2022/05/03 09:23:48;;;;;;;3.37;2.90;;;;;;;;;;5092788;28;20428;-74
2022/05/03 09:26:16;;;;;;;2.90;2.30;;;;;;;;;;5092161;28;20802;-74
2022/05/03 09:28:49;;;;;;;2.80;2.13;;;;;;;;;;5087382;28;20480;-74
2022/05/03 09:31:27;;;;;;;3.03;2.73;;;;;;;;;;5085172;28;20476;-74
2022/05/03 09:33:55;;;;;;;3.47;2.30;;;;;;;;;;5092799;28;20441;-73
2022/05/03 09:36:22;;;;;;;3.30;3.00;;;;;;;;;;5092667;28;20824;-73
2022/05/03 09:38:50;;;;;;;2.83;2.23;;;;;;;;;;5092638;28;20443;-74
2022/05/03 09:41:18;;;;;;;3.23;2.53;;;;;;;;;;5091250;28;20524;-73
2022/05/03 09:44:03;;;;;;;2.77;2.50;;;;;;;;;;5092609;28;20433;-72
2022/05/03 09:46:30;;;;;;;2.93;2.43;;;;;;;;;;5092381;28;20563;-72
2022/05/03 09:48:57;;;;;;;4.40;3.07;;;;;;;;;;5092238;28;20447;-73
2022/05/03 09:51:25;;;;;;;3.27;2.93;;;;;;;;;;5092474;28;20447;-73
2022/05/03 09:53:56;;;;;;;3.27;2.97;;;;;;;;;;5092318;28;20464;-73
2022/05/03 09:56:25;;;;;;;5.70;3.23;;;;;;;;;;5092061;28;20516;-73
2022/05/03 09:58:54;;;;;;;5.50;2.87;;;;;;;;;;5090935;28;20468;-74
2022/05/03 10:01:23;;;;;;;3.90;3.50;;;;;;;;;;5079930;28;20485;-73
2022/05/03 10:03:50;;;;;;;3.87;3.47;;;;;;;;;;5091725;28;20444;-73
2022/05/03 10:06:18;;;;;;;4.23;3.83;;;;;;;;;;5091428;28;20449;-72
2022/05/03 10:08:46;;;;;;;4.50;3.47;;;;;;;;;;5088884;28;20455;-73
2022/05/03 10:11:14;;;;;;;3.43;3.10;;;;;;;;;;5091224;28;20476;-74
2022/05/03 10:13:41;;;;;;;4.50;3.40;;;;;;;;;;5091958;28;20441;-74
2022/05/03 10:21:42;;;;;;;3.33;2.93;;;;;;;;;;5091655;28;20534;-74
2022/05/03 10:24:10;;;;;;;3.03;2.77;;;;;;;;;;5091194;28;20448;-74
2022/05/03 10:26:58;;;;;;;4.73;3.30;;;;;;;;;;5091585;28;20495;-74
2022/05/03 10:29:26;;;;;;;3.90;3.20;;;;;;;;;;5091769;28;20439;-74
2022/05/03 10:31:59;;;;;;;2.70;2.40;;;;;;;;;;5091304;28;20437;-74
2022/05/03 10:34:47;;;;;;;4.57;2.87;;;;;;;;;;5091160;28;20437;-74
2022/05/03 10:37:16;;;;;;;3.23;2.93;;;;;;;;;;5091036;28;20433;-75
2022/05/03 10:39:47;;;;;;;2.43;2.20;;;;;;;;;;5077693;28;20445;-75
2022/05/03 10:42:16;;;;;;;3.60;3.00;;;;;;;;;;5091106;28;20536;-74
2022/05/03 10:44:44;;;;;;;2.87;2.57;;;;;;;;;;5091232;28;20441;-73
2022/05/03 10:47:12;;;;;;;3.03;2.73;;;;;;;;;;5090789;28;20487;-75
2022/05/03 10:49:54;;;;;;;4.07;2.73;;;;;;;;;;5090975;28;20472;-73
2022/05/03 10:52:22;;;;;;;3.33;3.00;;;;;;;;;;5090199;28;20946;-74
2022/05/03 10:55:05;;;;;;;3.10;2.90;;;;;;;;;;5091519;28;20488;-74
2022/05/03 10:57:33;;;;;;;2.33;2.13;;;;;;;;;;5091358;28;20510;-74
2022/05/03 11:00:00;;;;;;;4.13;3.40;;;;;;;;;;5079819;28;20442;-73
2022/05/03 11:02:27;;;;;;;4.63;2.73;;;;;;;;;;5088291;28;20452;-74
2022/05/03 11:05:14;;;;;;;2.70;2.50;;;;;;;;;;5090973;28;20910;-74
2022/05/03 11:07:43;;;;;;;2.93;2.73;;;;;;;;;;5087745;28;20476;-74
2022/05/03 11:10:29;;;;;;;3.10;2.30;;;;;;;;;;5089748;28;20437;-74
2022/05/03 11:12:56;;;;;;;2.70;2.43;;;;;;;;;;5091107;28;20476;-74
2022/05/03 11:15:24;;;;;;;2.70;2.50;;;;;;;;;;5091072;28;20436;-74
2022/05/03 11:17:52;;;;;;;2.63;2.43;;;;;;;;;;5090744;28;20452;-74
2022/05/03 11:20:22;;;;;;;2.73;2.53;;;;;;;;;;5089982;28;20441;-74
2022/05/03 11:22:51;;;;;;;3.50;3.03;;;;;;;;;;5091096;28;20524;-74
2022/05/03 11:25:18;;;;;;;3.07;2.77;;;;;;;;;;5090065;28;20697;-73
2022/05/03 11:27:46;;;;;;;2.67;2.47;;;;;;;;;;5091028;28;21053;-73
2022/05/03 11:30:14;;;;;;;3.23;2.93;;;;;;;;;;5089757;28;20452;-73
2022/05/03 11:32:42;;;;;;;3.33;2.33;;;;;;;;;;5090886;28;20506;-73
2022/05/03 11:35:12;;;;;;;2.97;2.67;;;;;;;;;;5090203;28;20437;-73
2022/05/03 11:37:46;;;;;;;3.10;2.50;;;;;;;;;;5090699;28;20444;-73
2022/05/03 11:40:15;;;;;;;2.60;2.27;;;;;;;;;;5089775;28;20437;-73
2022/05/03 11:42:43;;;;;;;3.53;2.83;;;;;;;;;;5090515;28;20528;-73
2022/05/03 11:45:12;;;;;;;2.90;2.60;;;;;;;;;;5090613;28;20441;-74
2022/05/03 11:47:41;;;;;;;4.33;2.60;;;;;;;;;;5090548;28;20477;-75
2022/05/03 11:50:08;;;;;;;2.40;2.20;;;;;;;;;;5089716;28;20436;-74
2022/05/03 11:58:21;;;;;;;2.50;2.20;;;;;;;;;;4985897;28;20468;-74
2022/05/03 12:00:49;;;;;;;3.07;2.77;;;17.30;1.00;;;;;;4994885;28;20432;-74
2022/05/03 12:03:17;;;;;;;2.67;2.47;;;22.10;83.00;;;;;;5047443;28;20449;-73
2022/05/03 12:06:01;;;;;;;2.80;2.40;;;21.80;81.20;;;;;;5094156;28;20965;-74
2022/05/03 12:08:29;;;;;;;2.80;2.37;;;22.10;81.40;;;;;;5091444;28;20555;-74
2022/05/03 12:10:58;;;;;;;2.77;2.47;;;22.60;73.60;;;;;;5067576;28;20918;-74
2022/05/03 12:13:30;;;;;;;3.03;2.63;;;;;;;;;;5094145;28;20455;-74
2022/05/03 12:16:11;;;;;;;2.70;2.50;;;;;;;;;;5094515;28;20432;-75
2022/05/03 12:18:39;;;;;;;3.37;3.07;;;;;;;;;;5093924;28;20445;-74
2022/05/03 12:21:08;;;;;;;2.90;2.53;;;;;;;;;;5082890;28;20511;-73
2022/05/03 12:23:40;;;;;;;2.50;2.30;;;;;;;;;;5091643;28;20532;-74
2022/05/03 12:26:16;;;;;;;3.70;3.40;;;;;;;;;;5093432;28;20523;-73
2022/05/03 12:28:45;;;;;;;3.40;3.10;;;;;;;;;;5093387;28;20969;-74
2022/05/03 12:31:13;;;;;;;3.47;3.17;;;;;;;;;;5093160;28;20440;-74
2022/05/03 12:33:41;;;;;;;3.97;2.90;;;;;;;;;;5094034;28;20445;-75
2022/05/03 12:36:09;;;;;;;3.20;2.97;;;;;;;;;;5093122;28;20437;-74
2022/05/03 12:38:47;;;;;;;3.20;2.90;;;;;;;;;;5093668;28;21007;-74
2022/05/03 12:41:24;;;;;;;2.77;2.40;;;;;;;;;;5093246;28;20436;-74
2022/05/03 12:44:01;;;;;;;3.00;2.70;;;;;;;;;;5093625;28;20573;-74
2022/05/03 12:46:29;;;;;;;3.10;2.80;;;;;;;;;;5093793;28;20440;-75
2022/05/03 12:48:56;;;;;;;3.33;2.57;;;;;;;;;;5093167;28;20982;-74
2022/05/03 12:51:24;;;;;;;2.60;2.40;;;;;;;;;;5092753;28;20448;-74
2022/05/03 12:53:51;;;;;;;2.80;2.60;;;22.70;68.70;;;;;;5093296;28;20503;-73
2022/05/03 12:59:05;;;;;;;3.23;2.00;;;;;;;;;;5089779;28;20525;-73
2022/05/03 13:01:33;;;;;;;1.83;1.73;;;;;;;;;;5083056;28;20523;-73
2022/05/03 13:04:00;;;;;;;2.03;1.83;;;;;;;;;;5093279;28;20456;-73
2022/05/03 13:06:28;;;;;;;1.97;1.80;;;;;;;;;;5093264;28;20918;-72
2022/05/03 13:08:55;;;;;;;2.37;2.17;;;;;;;;;;5089860;28;21029;-73
2022/05/03 13:11:22;;;;;;;2.43;2.00;;;;;;;;;;5092569;28;20532;-73
2022/05/03 13:13:50;;;;;;;1.83;1.70;;;;;;;;;;5091992;28;20490;-73
2022/05/03 13:16:19;;;;;;;2.10;1.90;;;;;;;;;;5092710;28;20520;-72
2022/05/03 13:18:46;;;;;;;3.80;1.97;;;;;;;;;;5092726;28;20441;-73
2022/05/03 13:21:13;;;;;;;5.00;2.90;;;;;;;;;;5092350;28;20482;-73
2022/05/03 13:23:40;;;;;;;3.50;2.30;;;;;;;;;;5093016;28;20527;-73
2022/05/03 13:26:07;;;;;;;4.57;2.50;;;;;;;;;;5092231;28;20956;-72
2022/05/03 13:28:34;;;;;;;4.10;2.77;;;;;;;;;;5092348;28;20477;-74
2022/05/03 13:31:01;;;;;;;3.20;2.90;;;20.80;94.20;;;;;;5092339;28;20440;-72
2022/05/03 13:33:30;;;;;;;6.50;2.77;;;16.10;1.00;;;;;;5092779;28;20476;-74
2022/05/03 13:41:31;;;;;;;4.47;2.80;;;16.10;99.90;;;;;;5071816;28;20429;-73
2022/05/03 13:43:59;;;;;;;5.73;3.40;;;16.10;99.90;;;;;;5092596;28;20433;-73
2022/05/03 13:46:26;;;;;;;3.10;2.67;;;16.00;99.90;;;;;;5092189;28;20933;-73
2022/05/03 13:48:54;;;;;;;4.97;2.60;;;16.10;8.90;;;;;;5092116;28;20520;-74
2022/05/03 13:51:21;;;;;;;2.60;2.40;;;16.00;52.60;;;;;;5091363;28;20456;-73
2022/05/03 13:53:48;;;;;;;6.23;2.53;;;15.70;99.90;;;;;;5092564;28;20467;-74
2022/05/03 13:56:15;;;;;;;3.80;3.07;;;15.60;99.90;;;;;;5091479;28;20535;-74
2022/05/03 13:58:43;;;;;;;6.47;2.53;;;15.40;99.90;;;;;;5091941;28;20502;-74
2022/05/03 14:01:10;;;;;;;3.90;3.13;;;15.40;1.00;;;;;;5064600;28;20449;-73
2022/05/03 14:03:37;;;;;;;4.53;3.63;;;15.50;1.00;;;;;;5092067;28;20438;-73
2022/05/03 14:06:05;;;;;;;3.67;3.33;;;15.60;1.00;;;;;;5091801;28;20547;-73
2022/05/03 14:08:32;;;;;;;4.30;2.73;;;15.50;1.00;;;;;;5088655;28;20490;-73
2022/05/03 14:11:01;;;;;;;4.00;3.38;;;15.20;99.90;;;;;;5092385;28;20433;-73
2022/05/03 14:13:28;;;;;;;6.50;2.97;;;15.20;99.90;;;;;;5092185;28;20245;-75
2022/05/03 14:15:55;;;;;;;5.23;3.40;;;15.00;99.90;;;;;;5092063;28;20451;-74
2022/05/03 14:18:23;;;;;;;3.50;3.20;;;14.90;99.90;;;;;;5091236;28;20861;-74
2022/05/03 14:20:50;;;;;;;4.70;2.97;;;14.80;99.90;;;;;;5091572;28;20437;-74
2022/05/03 14:23:18;;;;;;;4.23;2.97;;;14.50;99.90;;;;;;5090975;28;20440;-73
2022/05/03 14:25:45;;;;;;;3.37;2.87;;;14.50;99.90;;;;;;5092015;28;20468;-73
2022/05/03 14:28:12;;;;;;;4.57;3.33;;;14.60;99.90;;;;;;5091223;28;20477;-73
2022/05/03 14:30:39;;;;;;;4.33;3.13;;;14.40;99.90;;;;;;5091651;28;20471;-73
2022/05/03 14:33:07;;;;;;;3.37;2.93;;;14.30;99.90;;;;;;5091013;28;20455;-72
2022/05/03 14:35:34;;;;;;;4.53;2.77;;;14.30;99.90;;;;;;5091426;28;20447;-73
2022/05/03 14:38:01;;;;;;;3.47;2.30;;;14.20;99.90;;;;;;5091145;28;20502;-73
2022/05/03 14:40:30;;;;;;;5.30;3.53;;;14.10;99.90;;;;;;5091495;28;20441;-74
2022/05/03 14:42:57;;;;;;;12.43;3.60;;;14.20;99.90;;;;;;5091709;28;20862;-74
2022/05/03 14:45:23;;;;;;;9.40;3.43;;;14.10;99.90;;;;;;5090771;28;20470;-74
2022/05/03 14:47:50;;;;;;;4.77;3.77;;;14.10;99.90;;;;;;5091554;28;20568;-74
2022/05/03 14:50:17;;;;;;;3.30;2.87;;;14.20;99.90;;;;;;5090589;28;20528;-74
2022/05/03 14:52:44;;;;;;;3.73;2.90;;;14.00;99.90;;;;;;5091606;28;20448;-73
2022/05/03 14:55:11;;;;;;;5.27;3.13;;;13.90;99.90;;;;;;5091378;28;20846;-74